sensor_id;sensor_type;location;lat;lon;timestamp;temperature;humidity
24164;DHT22;12319;49.204;8.116;2023-04-19T00:00:39;12.50;79.50
24164;DHT22;12319;49.204;8.116;2023-04-19T00:03:05;12.50;79.50
24164;DHT22;12319;49.204;8.116;2023-04-19T00:05:31;12.50;79.60
24164;DHT22;12319;49.204;8.116;2023-04-19T00:07:57;12.50;79.60
24164;DHT22;12319;49.204;8.116;2023-04-19T00:10:23;12.50;80.30
24164;DHT22;12319;49.204;8.116;2023-04-19T00:12:49;12.50;79.80
24164;DHT22;12319;49.204;8.116;2023-04-19T00:15:14;12.50;79.90
24164;DHT22;12319;49.204;8.116;2023-04-19T00:17:40;12.40;79.80
24164;DHT22;12319;49.204;8.116;2023-04-19T00:20:06;12.40;79.90
24164;DHT22;12319;49.204;8.116;2023-04-19T00:22:33;12.40;79.90
24164;DHT22;12319;49.204;8.116;2023-04-19T00:25:00;12.40;79.90
24164;DHT22;12319;49.204;8.116;2023-04-19T00:27:26;12.40;80.00
24164;DHT22;12319;49.204;8.116;2023-04-19T00:29:51;12.30;80.00
24164;DHT22;12319;49.204;8.116;2023-04-19T00:32:17;12.30;80.10
24164;DHT22;12319;49.204;8.116;2023-04-19T00:34:42;12.30;80.00
24164;DHT22;12319;49.204;8.116;2023-04-19T00:37:08;12.20;80.10
24164;DHT22;12319;49.204;8.116;2023-04-19T00:39:34;12.30;80.40
24164;DHT22;12319;49.204;8.116;2023-04-19T00:41:59;12.20;80.50
24164;DHT22;12319;49.204;8.116;2023-04-19T00:44:26;12.20;80.50
24164;DHT22;12319;49.204;8.116;2023-04-19T00:46:52;12.20;80.30
24164;DHT22;12319;49.204;8.116;2023-04-19T00:49:19;12.10;80.40
24164;DHT22;12319;49.204;8.116;2023-04-19T00:51:47;12.10;80.60
24164;DHT22;12319;49.204;8.116;2023-04-19T00:54:13;12.10;80.50
24164;DHT22;12319;49.204;8.116;2023-04-19T00:56:39;12.00;80.40
24164;DHT22;12319;49.204;8.116;2023-04-19T00:59:05;12.10;80.60
24164;DHT22;12319;49.204;8.116;2023-04-19T01:01:32;12.00;80.60
24164;DHT22;12319;49.204;8.116;2023-04-19T01:03:59;12.00;80.80
24164;DHT22;12319;49.204;8.116;2023-04-19T01:06:26;11.90;80.80
24164;DHT22;12319;49.204;8.116;2023-04-19T01:08:52;11.90;80.80
24164;DHT22;12319;49.204;8.116;2023-04-19T01:11:18;11.90;81.10
24164;DHT22;12319;49.204;8.116;2023-04-19T01:13:43;11.80;80.80
24164;DHT22;12319;49.204;8.116;2023-04-19T01:16:09;11.80;81.10
24164;DHT22;12319;49.204;8.116;2023-04-19T01:18:35;11.80;81.10
24164;DHT22;12319;49.204;8.116;2023-04-19T01:21:02;11.80;81.40
24164;DHT22;12319;49.204;8.116;2023-04-19T01:23:28;11.80;81.20
24164;DHT22;12319;49.204;8.116;2023-04-19T01:25:54;11.80;81.20
24164;DHT22;12319;49.204;8.116;2023-04-19T01:28:19;11.80;82.00
24164;DHT22;12319;49.204;8.116;2023-04-19T01:30:45;11.70;81.30
24164;DHT22;12319;49.204;8.116;2023-04-19T01:33:10;11.80;81.40
24164;DHT22;12319;49.204;8.116;2023-04-19T01:35:36;11.70;81.40
24164;DHT22;12319;49.204;8.116;2023-04-19T01:38:01;11.70;81.40
24164;DHT22;12319;49.204;8.116;2023-04-19T01:40:27;11.70;81.50
24164;DHT22;12319;49.204;8.116;2023-04-19T01:42:52;11.70;81.50
24164;DHT22;12319;49.204;8.116;2023-04-19T01:45:18;11.70;81.60
24164;DHT22;12319;49.204;8.116;2023-04-19T01:47:44;11.70;81.80
24164;DHT22;12319;49.204;8.116;2023-04-19T01:50:09;11.60;81.80
24164;DHT22;12319;49.204;8.116;2023-04-19T01:52:35;11.60;81.80
24164;DHT22;12319;49.204;8.116;2023-04-19T01:55:01;11.60;81.70
24164;DHT22;12319;49.204;8.116;2023-04-19T01:57:26;11.60;82.00
24164;DHT22;12319;49.204;8.116;2023-04-19T01:59:52;11.60;82.00
24164;DHT22;12319;49.204;8.116;2023-04-19T02:02:18;11.60;82.20
24164;DHT22;12319;49.204;8.116;2023-04-19T02:04:44;11.50;82.00
24164;DHT22;12319;49.204;8.116;2023-04-19T02:07:10;11.60;82.20
24164;DHT22;12319;49.204;8.116;2023-04-19T02:09:36;11.50;82.10
24164;DHT22;12319;49.204;8.116;2023-04-19T02:12:02;11.60;82.30
24164;DHT22;12319;49.204;8.116;2023-04-19T02:14:28;11.50;82.30
24164;DHT22;12319;49.204;8.116;2023-04-19T02:16:54;11.50;82.20
24164;DHT22;12319;49.204;8.116;2023-04-19T02:19:20;11.50;82.30
24164;DHT22;12319;49.204;8.116;2023-04-19T02:21:45;11.50;82.40
24164;DHT22;12319;49.204;8.116;2023-04-19T02:24:11;11.50;82.40
24164;DHT22;12319;49.204;8.116;2023-04-19T02:26:37;11.50;82.50
24164;DHT22;12319;49.204;8.116;2023-04-19T02:29:03;11.50;82.50
24164;DHT22;12319;49.204;8.116;2023-04-19T02:31:28;11.50;82.60
24164;DHT22;12319;49.204;8.116;2023-04-19T02:33:54;11.50;82.60
24164;DHT22;12319;49.204;8.116;2023-04-19T02:36:20;11.50;82.60
24164;DHT22;12319;49.204;8.116;2023-04-19T02:38:45;11.50;82.60
24164;DHT22;12319;49.204;8.116;2023-04-19T02:41:11;11.50;82.60
24164;DHT22;12319;49.204;8.116;2023-04-19T02:43:36;11.50;82.60
24164;DHT22;12319;49.204;8.116;2023-04-19T02:46:02;11.40;82.70
24164;DHT22;12319;49.204;8.116;2023-04-19T02:48:28;11.40;82.90
24164;DHT22;12319;49.204;8.116;2023-04-19T02:50:53;11.40;83.10
24164;DHT22;12319;49.204;8.116;2023-04-19T02:53:19;11.40;83.10
24164;DHT22;12319;49.204;8.116;2023-04-19T02:55:44;11.50;83.20
24164;DHT22;12319;49.204;8.116;2023-04-19T02:58:10;11.50;83.40
24164;DHT22;12319;49.204;8.116;2023-04-19T03:00:36;11.40;83.20
24164;DHT22;12319;49.204;8.116;2023-04-19T03:03:01;11.40;82.70
24164;DHT22;12319;49.204;8.116;2023-04-19T03:05:29;11.40;83.20
24164;DHT22;12319;49.204;8.116;2023-04-19T03:07:54;11.40;83.20
24164;DHT22;12319;49.204;8.116;2023-04-19T03:10:20;11.40;83.30
24164;DHT22;12319;49.204;8.116;2023-04-19T03:12:46;11.40;83.30
24164;DHT22;12319;49.204;8.116;2023-04-19T03:15:11;11.40;83.40
24164;DHT22;12319;49.204;8.116;2023-04-19T03:17:37;11.40;84.00
24164;DHT22;12319;49.204;8.116;2023-04-19T03:20:02;11.30;83.60
24164;DHT22;12319;49.204;8.116;2023-04-19T03:22:35;11.30;83.90
24164;DHT22;12319;49.204;8.116;2023-04-19T03:25:01;11.30;83.90
24164;DHT22;12319;49.204;8.116;2023-04-19T03:27:26;11.30;83.90
24164;DHT22;12319;49.204;8.116;2023-04-19T03:29:52;11.30;83.80
24164;DHT22;12319;49.204;8.116;2023-04-19T03:32:17;11.20;84.00
24164;DHT22;12319;49.204;8.116;2023-04-19T03:34:43;11.20;83.90
24164;DHT22;12319;49.204;8.116;2023-04-19T03:37:08;11.20;84.10
24164;DHT22;12319;49.204;8.116;2023-04-19T03:39:34;11.20;83.80
24164;DHT22;12319;49.204;8.116;2023-04-19T03:42:00;11.20;83.90
24164;DHT22;12319;49.204;8.116;2023-04-19T03:44:26;11.20;84.10
24164;DHT22;12319;49.204;8.116;2023-04-19T03:46:51;11.20;83.80
24164;DHT22;12319;49.204;8.116;2023-04-19T03:49:17;11.20;84.00
24164;DHT22;12319;49.204;8.116;2023-04-19T03:51:42;11.20;84.10
24164;DHT22;12319;49.204;8.116;2023-04-19T03:54:08;11.20;84.30
24164;DHT22;12319;49.204;8.116;2023-04-19T03:56:33;11.20;84.20
24164;DHT22;12319;49.204;8.116;2023-04-19T03:58:59;11.20;84.30
24164;DHT22;12319;49.204;8.116;2023-04-19T04:01:25;11.20;84.50
24164;DHT22;12319;49.204;8.116;2023-04-19T04:03:51;11.20;84.60
24164;DHT22;12319;49.204;8.116;2023-04-19T04:06:16;11.20;84.50
24164;DHT22;12319;49.204;8.116;2023-04-19T04:08:42;11.20;84.60
24164;DHT22;12319;49.204;8.116;2023-04-19T04:11:08;11.20;84.60
24164;DHT22;12319;49.204;8.116;2023-04-19T04:13:33;11.20;84.50
24164;DHT22;12319;49.204;8.116;2023-04-19T04:15:59;11.20;84.50
24164;DHT22;12319;49.204;8.116;2023-04-19T04:18:25;11.20;84.50
24164;DHT22;12319;49.204;8.116;2023-04-19T04:20:52;11.10;84.50
24164;DHT22;12319;49.204;8.116;2023-04-19T04:23:18;11.20;84.80
24164;DHT22;12319;49.204;8.116;2023-04-19T04:25:46;11.20;84.60
24164;DHT22;12319;49.204;8.116;2023-04-19T04:28:12;11.10;84.90
24164;DHT22;12319;49.204;8.116;2023-04-19T04:30:38;11.10;85.00
24164;DHT22;12319;49.204;8.116;2023-04-19T04:33:04;11.10;84.90
24164;DHT22;12319;49.204;8.116;2023-04-19T04:35:30;11.10;85.10
24164;DHT22;12319;49.204;8.116;2023-04-19T04:37:56;11.10;84.80
24164;DHT22;12319;49.204;8.116;2023-04-19T04:40:22;11.10;84.80
24164;DHT22;12319;49.204;8.116;2023-04-19T04:42:47;11.10;85.10
24164;DHT22;12319;49.204;8.116;2023-04-19T04:45:13;11.10;84.80
24164;DHT22;12319;49.204;8.116;2023-04-19T04:47:42;11.10;85.20
24164;DHT22;12319;49.204;8.116;2023-04-19T04:50:10;11.10;85.20
24164;DHT22;12319;49.204;8.116;2023-04-19T04:52:36;11.10;85.30
24164;DHT22;12319;49.204;8.116;2023-04-19T04:55:01;11.10;85.10
24164;DHT22;12319;49.204;8.116;2023-04-19T04:57:27;11.10;85.20
24164;DHT22;12319;49.204;8.116;2023-04-19T04:59:52;11.10;85.20
24164;DHT22;12319;49.204;8.116;2023-04-19T05:02:20;11.10;85.10
24164;DHT22;12319;49.204;8.116;2023-04-19T05:04:48;11.20;85.30
24164;DHT22;12319;49.204;8.116;2023-04-19T05:07:13;11.20;85.30
24164;DHT22;12319;49.204;8.116;2023-04-19T05:09:39;11.20;86.00
24164;DHT22;12319;49.204;8.116;2023-04-19T05:12:05;11.20;85.40
24164;DHT22;12319;49.204;8.116;2023-04-19T05:14:30;11.20;85.30
24164;DHT22;12319;49.204;8.116;2023-04-19T05:16:56;11.30;85.30
24164;DHT22;12319;49.204;8.116;2023-04-19T05:19:21;11.30;85.30
24164;DHT22;12319;49.204;8.116;2023-04-19T05:21:47;11.40;85.40
24164;DHT22;12319;49.204;8.116;2023-04-19T05:24:12;11.40;85.40
24164;DHT22;12319;49.204;8.116;2023-04-19T05:26:38;11.40;85.30
24164;DHT22;12319;49.204;8.116;2023-04-19T05:29:03;11.40;85.20
24164;DHT22;12319;49.204;8.116;2023-04-19T05:31:29;11.40;85.40
24164;DHT22;12319;49.204;8.116;2023-04-19T05:33:54;11.40;85.30
24164;DHT22;12319;49.204;8.116;2023-04-19T05:36:20;11.40;85.30
24164;DHT22;12319;49.204;8.116;2023-04-19T05:38:45;11.40;85.20
24164;DHT22;12319;49.204;8.116;2023-04-19T05:41:11;11.50;85.40
24164;DHT22;12319;49.204;8.116;2023-04-19T05:43:37;11.50;85.10
24164;DHT22;12319;49.204;8.116;2023-04-19T05:46:02;11.50;85.50
24164;DHT22;12319;49.204;8.116;2023-04-19T05:48:28;11.60;85.60
24164;DHT22;12319;49.204;8.116;2023-04-19T05:50:53;11.60;85.40
24164;DHT22;12319;49.204;8.116;2023-04-19T05:53:21;11.70;85.20
24164;DHT22;12319;49.204;8.116;2023-04-19T05:55:47;11.70;85.10
24164;DHT22;12319;49.204;8.116;2023-04-19T05:58:15;11.80;85.10
24164;DHT22;12319;49.204;8.116;2023-04-19T06:00:40;11.80;85.00
24164;DHT22;12319;49.204;8.116;2023-04-19T06:03:07;11.90;85.20
24164;DHT22;12319;49.204;8.116;2023-04-19T06:05:32;11.90;85.10
24164;DHT22;12319;49.204;8.116;2023-04-19T06:07:58;12.00;85.00
24164;DHT22;12319;49.204;8.116;2023-04-19T06:10:24;12.10;85.00
24164;DHT22;12319;49.204;8.116;2023-04-19T06:12:49;12.30;84.80
24164;DHT22;12319;49.204;8.116;2023-04-19T06:15:15;12.30;84.70
24164;DHT22;12319;49.204;8.116;2023-04-19T06:17:40;12.30;84.80
24164;DHT22;12319;49.204;8.116;2023-04-19T06:20:06;12.40;84.70
24164;DHT22;12319;49.204;8.116;2023-04-19T06:22:33;12.50;84.50
24164;DHT22;12319;49.204;8.116;2023-04-19T06:24:59;12.70;84.70
24164;DHT22;12319;49.204;8.116;2023-04-19T06:27:25;12.80;84.50
24164;DHT22;12319;49.204;8.116;2023-04-19T06:29:50;12.80;84.10
24164;DHT22;12319;49.204;8.116;2023-04-19T06:32:16;12.90;83.90
24164;DHT22;12319;49.204;8.116;2023-04-19T06:34:42;13.00;84.00
24164;DHT22;12319;49.204;8.116;2023-04-19T06:37:07;13.10;83.70
24164;DHT22;12319;49.204;8.116;2023-04-19T06:39:33;13.30;83.90
24164;DHT22;12319;49.204;8.116;2023-04-19T06:41:59;13.60;83.70
24164;DHT22;12319;49.204;8.116;2023-04-19T06:44:25;13.90;83.40
24164;DHT22;12319;49.204;8.116;2023-04-19T06:46:51;14.20;82.50
24164;DHT22;12319;49.204;8.116;2023-04-19T06:49:16;14.40;81.90
24164;DHT22;12319;49.204;8.116;2023-04-19T06:51:42;14.50;82.60
24164;DHT22;12319;49.204;8.116;2023-04-19T06:54:07;14.70;81.80
24164;DHT22;12319;49.204;8.116;2023-04-19T06:56:44;14.80;81.30
24164;DHT22;12319;49.204;8.116;2023-04-19T06:59:12;14.90;80.60
24164;DHT22;12319;49.204;8.116;2023-04-19T07:01:37;14.90;80.30
24164;DHT22;12319;49.204;8.116;2023-04-19T07:04:03;15.10;80.80
24164;DHT22;12319;49.204;8.116;2023-04-19T07:06:29;15.20;79.90
24164;DHT22;12319;49.204;8.116;2023-04-19T07:08:55;15.20;79.70
24164;DHT22;12319;49.204;8.116;2023-04-19T07:11:20;15.00;80.10
24164;DHT22;12319;49.204;8.116;2023-04-19T07:13:46;14.80;79.50
24164;DHT22;12319;49.204;8.116;2023-04-19T07:16:11;14.60;80.00
24164;DHT22;12319;49.204;8.116;2023-04-19T07:18:39;14.50;80.10
24164;DHT22;12319;49.204;8.116;2023-04-19T07:21:04;14.40;80.30
24164;DHT22;12319;49.204;8.116;2023-04-19T07:23:30;14.30;80.30
24164;DHT22;12319;49.204;8.116;2023-04-19T07:25:56;14.40;80.60
24164;DHT22;12319;49.204;8.116;2023-04-19T07:28:21;14.90;81.60
24164;DHT22;12319;49.204;8.116;2023-04-19T07:30:47;16.40;82.20
24164;DHT22;12319;49.204;8.116;2023-04-19T07:33:12;18.00;79.60
24164;DHT22;12319;49.204;8.116;2023-04-19T07:35:38;19.40;77.00
24164;DHT22;12319;49.204;8.116;2023-04-19T07:38:04;20.40;76.80
24164;DHT22;12319;49.204;8.116;2023-04-19T07:40:29;21.30;76.00
24164;DHT22;12319;49.204;8.116;2023-04-19T07:42:55;21.80;73.00
24164;DHT22;12319;49.204;8.116;2023-04-19T07:45:21;21.60;70.70
24164;DHT22;12319;49.204;8.116;2023-04-19T07:47:46;21.10;68.90
24164;DHT22;12319;49.204;8.116;2023-04-19T07:50:12;20.50;69.10
24164;DHT22;12319;49.204;8.116;2023-04-19T07:52:38;19.90;69.20
24164;DHT22;12319;49.204;8.116;2023-04-19T07:55:03;19.30;69.60
24164;DHT22;12319;49.204;8.116;2023-04-19T07:57:29;18.90;69.50
24164;DHT22;12319;49.204;8.116;2023-04-19T07:59:56;18.60;70.20
24164;DHT22;12319;49.204;8.116;2023-04-19T08:02:25;18.30;70.00
24164;DHT22;12319;49.204;8.116;2023-04-19T08:04:52;17.90;70.10
24164;DHT22;12319;49.204;8.116;2023-04-19T08:07:18;17.60;70.30
24164;DHT22;12319;49.204;8.116;2023-04-19T08:09:43;17.40;70.10
24164;DHT22;12319;49.204;8.116;2023-04-19T08:12:09;17.20;70.80
24164;DHT22;12319;49.204;8.116;2023-04-19T08:14:34;17.00;71.30
24164;DHT22;12319;49.204;8.116;2023-04-19T08:17:00;17.00;72.10
24164;DHT22;12319;49.204;8.116;2023-04-19T08:19:26;17.10;72.60
24164;DHT22;12319;49.204;8.116;2023-04-19T08:21:51;17.30;72.60
24164;DHT22;12319;49.204;8.116;2023-04-19T08:24:17;17.20;71.90
24164;DHT22;12319;49.204;8.116;2023-04-19T08:26:42;17.00;71.30
24164;DHT22;12319;49.204;8.116;2023-04-19T08:29:08;16.80;71.20
24164;DHT22;12319;49.204;8.116;2023-04-19T08:31:33;16.50;71.70
24164;DHT22;12319;49.204;8.116;2023-04-19T08:33:59;16.30;72.10
24164;DHT22;12319;49.204;8.116;2023-04-19T08:36:25;16.10;72.70
24164;DHT22;12319;49.204;8.116;2023-04-19T08:38:52;15.80;72.80
24164;DHT22;12319;49.204;8.116;2023-04-19T08:41:18;15.60;73.10
24164;DHT22;12319;49.204;8.116;2023-04-19T08:43:46;15.30;73.70
24164;DHT22;12319;49.204;8.116;2023-04-19T08:46:13;15.00;74.10
24164;DHT22;12319;49.204;8.116;2023-04-19T08:48:39;14.80;74.60
24164;DHT22;12319;49.204;8.116;2023-04-19T08:51:05;14.70;75.80
24164;DHT22;12319;49.204;8.116;2023-04-19T08:53:33;14.60;75.60
24164;DHT22;12319;49.204;8.116;2023-04-19T08:56:00;14.50;75.80
24164;DHT22;12319;49.204;8.116;2023-04-19T08:58:25;14.50;76.00
24164;DHT22;12319;49.204;8.116;2023-04-19T09:00:54;14.40;76.30
24164;DHT22;12319;49.204;8.116;2023-04-19T09:03:20;14.40;76.50
24164;DHT22;12319;49.204;8.116;2023-04-19T09:05:45;14.40;76.80
24164;DHT22;12319;49.204;8.116;2023-04-19T09:08:27;14.40;76.90
24164;DHT22;12319;49.204;8.116;2023-04-19T09:10:55;14.50;77.10
24164;DHT22;12319;49.204;8.116;2023-04-19T09:13:20;14.50;77.20
24164;DHT22;12319;49.204;8.116;2023-04-19T09:15:46;14.50;77.40
24164;DHT22;12319;49.204;8.116;2023-04-19T09:18:12;14.40;77.50
24164;DHT22;12319;49.204;8.116;2023-04-19T09:20:42;14.40;77.80
24164;DHT22;12319;49.204;8.116;2023-04-19T09:23:14;14.40;78.00
24164;DHT22;12319;49.204;8.116;2023-04-19T09:25:51;14.40;78.40
24164;DHT22;12319;49.204;8.116;2023-04-19T09:28:17;14.40;78.70
24164;DHT22;12319;49.204;8.116;2023-04-19T09:30:43;14.40;78.50
24164;DHT22;12319;49.204;8.116;2023-04-19T09:33:08;14.30;78.60
24164;DHT22;12319;49.204;8.116;2023-04-19T09:35:42;14.40;78.70
24164;DHT22;12319;49.204;8.116;2023-04-19T09:38:08;14.50;79.10
24164;DHT22;12319;49.204;8.116;2023-04-19T09:40:35;14.60;79.10
24164;DHT22;12319;49.204;8.116;2023-04-19T09:43:01;14.70;79.00
24164;DHT22;12319;49.204;8.116;2023-04-19T09:45:44;14.80;79.20
24164;DHT22;12319;49.204;8.116;2023-04-19T09:48:11;15.00;79.30
24164;DHT22;12319;49.204;8.116;2023-04-19T09:50:52;15.10;79.00
24164;DHT22;12319;49.204;8.116;2023-04-19T09:53:18;15.40;79.00
24164;DHT22;12319;49.204;8.116;2023-04-19T09:55:45;15.70;78.70
24164;DHT22;12319;49.204;8.116;2023-04-19T09:58:14;15.90;78.30
24164;DHT22;12319;49.204;8.116;2023-04-19T10:00:42;16.00;78.00
24164;DHT22;12319;49.204;8.116;2023-04-19T10:03:08;16.10;77.70
24164;DHT22;12319;49.204;8.116;2023-04-19T10:05:38;16.10;77.40
24164;DHT22;12319;49.204;8.116;2023-04-19T10:08:06;16.10;77.10
24164;DHT22;12319;49.204;8.116;2023-04-19T10:10:32;16.20;77.00
24164;DHT22;12319;49.204;8.116;2023-04-19T10:12:58;16.30;77.00
24164;DHT22;12319;49.204;8.116;2023-04-19T10:15:25;16.20;76.90
24164;DHT22;12319;49.204;8.116;2023-04-19T10:17:52;16.20;77.00
24164;DHT22;12319;49.204;8.116;2023-04-19T10:20:33;16.20;76.80
24164;DHT22;12319;49.204;8.116;2023-04-19T10:23:01;16.20;76.70
24164;DHT22;12319;49.204;8.116;2023-04-19T10:25:28;16.00;76.70
24164;DHT22;12319;49.204;8.116;2023-04-19T10:27:54;16.00;77.00
24164;DHT22;12319;49.204;8.116;2023-04-19T10:30:24;16.00;77.10
24164;DHT22;12319;49.204;8.116;2023-04-19T10:32:53;15.80;77.00
24164;DHT22;12319;49.204;8.116;2023-04-19T10:35:28;15.60;76.90
24164;DHT22;12319;49.204;8.116;2023-04-19T10:38:16;15.70;77.30
24164;DHT22;12319;49.204;8.116;2023-04-19T10:40:54;15.60;77.50
24164;DHT22;12319;49.204;8.116;2023-04-19T10:43:24;15.50;77.60
24164;DHT22;12319;49.204;8.116;2023-04-19T10:45:51;15.50;77.50
24164;DHT22;12319;49.204;8.116;2023-04-19T10:51:15;15.50;77.50
24164;DHT22;12319;49.204;8.116;2023-04-19T10:53:51;15.50;77.60
24164;DHT22;12319;49.204;8.116;2023-04-19T10:56:19;15.50;77.50
24164;DHT22;12319;49.204;8.116;2023-04-19T11:01:45;15.70;77.50
24164;DHT22;12319;49.204;8.116;2023-04-19T11:04:13;15.70;77.30
24164;DHT22;12319;49.204;8.116;2023-04-19T11:11:53;15.80;76.50
24164;DHT22;12319;49.204;8.116;2023-04-19T11:14:22;15.70;76.50
24164;DHT22;12319;49.204;8.116;2023-04-19T11:16:48;15.70;76.40
24164;DHT22;12319;49.204;8.116;2023-04-19T11:19:17;15.60;76.20
24164;DHT22;12319;49.204;8.116;2023-04-19T11:21:44;15.50;76.40
24164;DHT22;12319;49.204;8.116;2023-04-19T11:24:11;15.40;76.20
24164;DHT22;12319;49.204;8.116;2023-04-19T11:26:37;15.30;76.30
24164;DHT22;12319;49.204;8.116;2023-04-19T11:29:02;15.30;76.40
24164;DHT22;12319;49.204;8.116;2023-04-19T11:31:33;15.20;76.40
24164;DHT22;12319;49.204;8.116;2023-04-19T11:33:59;15.20;76.60
24164;DHT22;12319;49.204;8.116;2023-04-19T11:36:25;15.10;76.50
24164;DHT22;12319;49.204;8.116;2023-04-19T11:38:52;15.10;76.90
24164;DHT22;12319;49.204;8.116;2023-04-19T11:41:18;15.00;76.70
24164;DHT22;12319;49.204;8.116;2023-04-19T11:43:43;14.90;76.90
24164;DHT22;12319;49.204;8.116;2023-04-19T11:46:13;14.90;76.90
24164;DHT22;12319;49.204;8.116;2023-04-19T11:48:48;14.80;77.10
24164;DHT22;12319;49.204;8.116;2023-04-19T11:51:15;14.80;77.10
24164;DHT22;12319;49.204;8.116;2023-04-19T11:53:40;14.80;77.10
24164;DHT22;12319;49.204;8.116;2023-04-19T11:56:07;14.80;77.20
24164;DHT22;12319;49.204;8.116;2023-04-19T11:58:39;14.90;77.20
24164;DHT22;12319;49.204;8.116;2023-04-19T12:01:10;14.90;76.70
24164;DHT22;12319;49.204;8.116;2023-04-19T12:03:43;14.90;76.50
24164;DHT22;12319;49.204;8.116;2023-04-19T12:06:11;15.00;76.20
24164;DHT22;12319;49.204;8.116;2023-04-19T12:08:41;15.10;76.50
24164;DHT22;12319;49.204;8.116;2023-04-19T12:11:07;15.30;76.50
24164;DHT22;12319;49.204;8.116;2023-04-19T12:13:33;15.50;76.00
24164;DHT22;12319;49.204;8.116;2023-04-19T12:15:59;15.70;75.60
24164;DHT22;12319;49.204;8.116;2023-04-19T12:18:25;15.90;75.60
24164;DHT22;12319;49.204;8.116;2023-04-19T12:20:52;16.10;75.20
24164;DHT22;12319;49.204;8.116;2023-04-19T12:23:18;16.20;74.30
24164;DHT22;12319;49.204;8.116;2023-04-19T12:25:46;16.40;73.80
24164;DHT22;12319;49.204;8.116;2023-04-19T12:28:13;16.40;73.30
24164;DHT22;12319;49.204;8.116;2023-04-19T12:30:39;16.60;73.20
24164;DHT22;12319;49.204;8.116;2023-04-19T12:33:08;16.50;71.70
24164;DHT22;12319;49.204;8.116;2023-04-19T12:35:34;16.50;72.10
24164;DHT22;12319;49.204;8.116;2023-04-19T12:38:00;16.50;72.40
24164;DHT22;12319;49.204;8.116;2023-04-19T12:40:27;16.50;72.60
24164;DHT22;12319;49.204;8.116;2023-04-19T12:42:53;16.50;72.00
24164;DHT22;12319;49.204;8.116;2023-04-19T12:45:20;16.60;72.30
24164;DHT22;12319;49.204;8.116;2023-04-19T12:47:46;16.70;72.50
24164;DHT22;12319;49.204;8.116;2023-04-19T12:50:13;16.70;72.30
24164;DHT22;12319;49.204;8.116;2023-04-19T12:52:38;16.80;72.50
24164;DHT22;12319;49.204;8.116;2023-04-19T12:55:05;16.90;72.00
24164;DHT22;12319;49.204;8.116;2023-04-19T12:57:31;16.90;71.20
24164;DHT22;12319;49.204;8.116;2023-04-19T12:59:56;17.00;70.80
24164;DHT22;12319;49.204;8.116;2023-04-19T13:02:22;17.00;69.60
24164;DHT22;12319;49.204;8.116;2023-04-19T13:04:47;17.00;69.70
24164;DHT22;12319;49.204;8.116;2023-04-19T13:07:13;16.90;69.90
24164;DHT22;12319;49.204;8.116;2023-04-19T13:09:38;17.10;69.80
24164;DHT22;12319;49.204;8.116;2023-04-19T13:12:04;17.00;69.50
24164;DHT22;12319;49.204;8.116;2023-04-19T13:14:30;17.10;69.80
24164;DHT22;12319;49.204;8.116;2023-04-19T13:16:56;17.20;69.60
24164;DHT22;12319;49.204;8.116;2023-04-19T13:19:21;17.20;68.70
24164;DHT22;12319;49.204;8.116;2023-04-19T13:21:47;17.40;68.60
24164;DHT22;12319;49.204;8.116;2023-04-19T13:24:13;17.40;68.60
24164;DHT22;12319;49.204;8.116;2023-04-19T13:26:38;17.50;68.70
24164;DHT22;12319;49.204;8.116;2023-04-19T13:29:04;17.60;66.70
24164;DHT22;12319;49.204;8.116;2023-04-19T13:31:30;17.60;65.70
24164;DHT22;12319;49.204;8.116;2023-04-19T13:33:55;17.60;63.70
24164;DHT22;12319;49.204;8.116;2023-04-19T13:36:21;17.50;65.10
24164;DHT22;12319;49.204;8.116;2023-04-19T13:38:47;17.50;64.50
24164;DHT22;12319;49.204;8.116;2023-04-19T13:41:13;17.50;62.30
24164;DHT22;12319;49.204;8.116;2023-04-19T13:43:39;17.40;62.70
24164;DHT22;12319;49.204;8.116;2023-04-19T13:46:05;17.50;63.10
24164;DHT22;12319;49.204;8.116;2023-04-19T13:48:30;17.60;63.40
24164;DHT22;12319;49.204;8.116;2023-04-19T13:50:57;17.80;63.30
24164;DHT22;12319;49.204;8.116;2023-04-19T13:53:24;18.00;61.20
24164;DHT22;12319;49.204;8.116;2023-04-19T13:55:50;18.10;61.50
24164;DHT22;12319;49.204;8.116;2023-04-19T13:58:16;18.20;59.70
24164;DHT22;12319;49.204;8.116;2023-04-19T14:00:42;18.20;60.00
24164;DHT22;12319;49.204;8.116;2023-04-19T14:03:07;18.40;58.50
24164;DHT22;12319;49.204;8.116;2023-04-19T14:05:33;18.40;59.20
24164;DHT22;12319;49.204;8.116;2023-04-19T14:07:58;18.30;59.20
24164;DHT22;12319;49.204;8.116;2023-04-19T14:10:24;18.20;59.00
24164;DHT22;12319;49.204;8.116;2023-04-19T14:12:50;18.10;58.90
24164;DHT22;12319;49.204;8.116;2023-04-19T14:15:20;18.00;58.20
24164;DHT22;12319;49.204;8.116;2023-04-19T14:17:48;17.80;58.30
24164;DHT22;12319;49.204;8.116;2023-04-19T14:20:13;17.80;57.50
24164;DHT22;12319;49.204;8.116;2023-04-19T14:22:40;17.80;57.80
24164;DHT22;12319;49.204;8.116;2023-04-19T14:25:05;17.80;57.50
24164;DHT22;12319;49.204;8.116;2023-04-19T14:27:31;17.90;58.60
24164;DHT22;12319;49.204;8.116;2023-04-19T14:29:57;17.90;58.50
24164;DHT22;12319;49.204;8.116;2023-04-19T14:32:22;18.00;58.10
24164;DHT22;12319;49.204;8.116;2023-04-19T14:34:48;18.00;57.40
24164;DHT22;12319;49.204;8.116;2023-04-19T14:37:14;18.30;56.70
24164;DHT22;12319;49.204;8.116;2023-04-19T14:39:39;18.40;56.80
24164;DHT22;12319;49.204;8.116;2023-04-19T14:42:05;18.40;56.30
24164;DHT22;12319;49.204;8.116;2023-04-19T14:44:30;18.30;57.10
24164;DHT22;12319;49.204;8.116;2023-04-19T14:46:56;18.20;56.20
24164;DHT22;12319;49.204;8.116;2023-04-19T14:49:21;18.20;55.80
24164;DHT22;12319;49.204;8.116;2023-04-19T14:51:47;18.20;55.50
24164;DHT22;12319;49.204;8.116;2023-04-19T14:54:12;18.00;55.50
24164;DHT22;12319;49.204;8.116;2023-04-19T14:56:38;17.90;56.00
24164;DHT22;12319;49.204;8.116;2023-04-19T14:59:05;17.90;55.10
24164;DHT22;12319;49.204;8.116;2023-04-19T15:01:32;17.80;55.20
24164;DHT22;12319;49.204;8.116;2023-04-19T15:03:58;17.60;54.90
24164;DHT22;12319;49.204;8.116;2023-04-19T15:06:23;17.60;56.30
24164;DHT22;12319;49.204;8.116;2023-04-19T15:08:49;17.60;54.70
24164;DHT22;12319;49.204;8.116;2023-04-19T15:11:15;17.50;53.60
24164;DHT22;12319;49.204;8.116;2023-04-19T15:13:41;17.50;54.70
24164;DHT22;12319;49.204;8.116;2023-04-19T15:16:06;17.50;52.50
24164;DHT22;12319;49.204;8.116;2023-04-19T15:18:33;17.40;51.30
24164;DHT22;12319;49.204;8.116;2023-04-19T15:20:59;17.40;52.70
24164;DHT22;12319;49.204;8.116;2023-04-19T15:23:24;17.40;51.80
24164;DHT22;12319;49.204;8.116;2023-04-19T15:25:51;17.30;50.10
24164;DHT22;12319;49.204;8.116;2023-04-19T15:28:16;17.30;50.90
24164;DHT22;12319;49.204;8.116;2023-04-19T15:30:42;17.30;50.90
24164;DHT22;12319;49.204;8.116;2023-04-19T15:33:08;17.20;49.60
24164;DHT22;12319;49.204;8.116;2023-04-19T15:35:33;17.30;50.80